createdAt,value
2023-02-03T00:01:02.123Z,47.35
2023-02-03T00:03:57.343Z,47.71
2023-02-03T00:06:27.014Z,46.83
2023-02-03T00:08:53.664Z,46.97
2023-02-03T00:11:20.486Z,47.22
2023-02-03T00:13:47.018Z,46.63
2023-02-03T00:16:13.661Z,46.40
2023-02-03T00:18:42.384Z,46.05
2023-02-03T00:21:09.004Z,46.70
2023-02-03T00:23:35.838Z,46.79
2023-02-03T00:26:02.434Z,46.84
2023-02-03T00:28:29.291Z,46.48
2023-02-03T00:30:56.888Z,45.78
2023-02-03T00:33:23.788Z,45.89
2023-02-03T00:35:50.328Z,46.84
2023-02-03T00:38:17.245Z,46.25
2023-02-03T00:40:43.986Z,46.26
2023-02-03T00:43:10.645Z,46.13
2023-02-03T00:45:37.467Z,46.35
2023-02-03T00:48:04.106Z,46.47
2023-02-03T00:50:30.935Z,46.23
2023-02-03T00:52:57.794Z,46.57
2023-02-03T00:55:24.462Z,46.78
2023-02-03T00:57:51.719Z,47.07
2023-02-03T01:00:18.259Z,46.44
2023-02-03T01:02:47.131Z,47.25
2023-02-03T01:05:14.327Z,46.46
2023-02-03T01:07:42.449Z,46.65
2023-02-03T01:10:09.204Z,46.38
2023-02-03T01:12:37.281Z,46.05
2023-02-03T01:15:03.891Z,46.60
2023-02-03T01:17:30.708Z,46.42
2023-02-03T01:19:57.600Z,46.78
2023-02-03T01:22:24.490Z,46.56
2023-02-03T01:24:51.046Z,46.40
2023-02-03T01:27:17.946Z,46.26
2023-02-03T01:29:44.769Z,46.61
2023-02-03T01:32:11.276Z,46.22
2023-02-03T01:34:39.096Z,47.28
2023-02-03T01:37:08.448Z,47.18
2023-02-03T01:39:37.438Z,48.90
2023-02-03T01:42:04.271Z,49.24
2023-02-03T01:44:31.207Z,50.27
2023-02-03T01:46:57.922Z,49.98
2023-02-03T01:49:25.147Z,49.63
2023-02-03T01:51:52.010Z,48.83
2023-02-03T01:54:19.367Z,48.23
2023-02-03T01:56:47.023Z,48.06
2023-02-03T01:59:14.603Z,47.68
2023-02-03T02:01:41.452Z,47.10
2023-02-03T02:04:08.258Z,46.28
2023-02-03T02:06:34.914Z,46.26
2023-02-03T02:09:01.743Z,46.67
2023-02-03T02:11:28.184Z,46.85
2023-02-03T02:13:55.002Z,46.73
2023-02-03T02:16:22.349Z,46.77
2023-02-03T02:18:49.082Z,46.31
2023-02-03T02:21:15.892Z,46.54
2023-02-03T02:23:42.639Z,46.86
2023-02-03T02:26:09.239Z,46.18
2023-02-03T02:28:37.946Z,48.27
2023-02-03T02:31:04.694Z,47.41
2023-02-03T02:33:31.837Z,47.97
2023-02-03T02:35:58.784Z,48.04
2023-02-03T02:38:26.303Z,47.12
2023-02-03T02:40:52.944Z,46.95
2023-02-03T02:43:22.045Z,46.51
2023-02-03T02:45:48.665Z,46.75
2023-02-03T02:48:15.534Z,46.71
2023-02-03T02:50:43.993Z,46.38
2023-02-03T02:53:10.579Z,46.22
2023-02-03T02:55:37.203Z,46.20
2023-02-03T02:58:04.108Z,46.05
2023-02-03T03:00:30.963Z,46.51
2023-02-03T03:02:57.589Z,46.40
2023-02-03T03:05:24.159Z,46.77
2023-02-03T03:07:50.817Z,46.27
2023-02-03T03:10:17.633Z,46.50
2023-02-03T03:12:44.540Z,46.04
2023-02-03T03:18:06.394Z,47.24
2023-02-03T03:20:33.304Z,48.13
2023-02-03T03:22:59.998Z,47.42
2023-02-03T03:25:26.753Z,47.77
2023-02-03T03:27:53.401Z,47.82
2023-02-03T03:30:20.054Z,47.99
2023-02-03T03:32:46.815Z,47.67
2023-02-03T03:35:15.509Z,47.99
2023-02-03T03:37:42.332Z,49.38
2023-02-03T03:40:09.142Z,50.01
2023-02-03T03:42:35.989Z,50.06
2023-02-03T03:47:54.691Z,49.09
2023-02-03T03:50:21.458Z,50.96
2023-02-03T03:55:42.309Z,53.69
2023-02-03T03:58:09.179Z,52.58
2023-02-03T04:00:36.067Z,51.57
2023-02-03T04:03:02.942Z,51.39
2023-02-03T04:05:32.209Z,52.95
2023-02-03T04:07:59.043Z,51.54
2023-02-03T04:10:26.131Z,51.27
2023-02-03T04:12:53.109Z,51.12
2023-02-03T04:15:19.648Z,49.93
2023-02-03T04:17:46.821Z,49.31
2023-02-03T04:20:13.480Z,49.11
2023-02-03T04:22:40.196Z,48.70
2023-02-03T04:25:07.040Z,48.94
2023-02-03T04:27:33.658Z,49.39
2023-02-03T04:30:00.248Z,49.08
2023-02-03T04:32:28.597Z,48.99
2023-02-03T04:34:55.446Z,50.12
2023-02-03T04:37:22.755Z,50.01
2023-02-03T04:39:49.355Z,49.77
2023-02-03T04:42:16.209Z,49.36
2023-02-03T04:44:42.817Z,49.41
2023-02-03T04:47:09.437Z,50.32
2023-02-03T04:49:38.438Z,51.40
2023-02-03T04:52:05.313Z,50.47
2023-02-03T04:54:32.657Z,50.20
2023-02-03T04:57:02.211Z,50.12
2023-02-03T04:59:29.040Z,50.80
2023-02-03T05:01:59.813Z,50.90
2023-02-03T05:04:26.381Z,50.43
2023-02-03T05:06:54.228Z,50.98
2023-02-03T05:09:29.095Z,50.82
2023-02-03T05:11:55.995Z,50.85
2023-02-03T05:14:25.106Z,50.94
2023-02-03T05:16:51.647Z,50.20
2023-02-03T05:19:20.122Z,50.18
2023-02-03T05:21:46.565Z,51.50
2023-02-03T05:24:14.023Z,52.69
2023-02-03T05:26:42.253Z,52.79
2023-02-03T05:29:09.117Z,51.14
2023-02-03T05:31:35.995Z,51.02
2023-02-03T05:36:45.749Z,50.31
2023-02-03T05:39:12.417Z,50.64
2023-02-03T05:41:39.676Z,50.17
2023-02-03T05:44:06.640Z,51.06
2023-02-03T05:46:35.134Z,50.72
2023-02-03T05:49:03.941Z,50.77
2023-02-03T05:51:32.697Z,50.94
2023-02-03T05:54:00.450Z,51.96
2023-02-03T05:56:27.565Z,51.48
2023-02-03T05:58:54.500Z,50.44
2023-02-03T06:01:21.339Z,51.54
2023-02-03T06:03:51.393Z,52.66
2023-02-03T06:06:18.186Z,53.92
2023-02-03T06:08:46.230Z,53.38
2023-02-03T06:11:13.255Z,53.72
2023-02-03T06:13:40.351Z,53.97
2023-02-03T06:16:13.317Z,53.05
2023-02-03T06:18:42.528Z,54.13
2023-02-03T06:21:11.143Z,55.74
2023-02-03T06:23:37.704Z,58.57
2023-02-03T06:26:06.118Z,58.55
2023-02-03T06:28:33.397Z,55.89
2023-02-03T06:31:00.517Z,54.38
2023-02-03T06:33:27.273Z,55.49
2023-02-03T06:35:54.686Z,54.12
2023-02-03T06:38:21.276Z,52.81
2023-02-03T06:40:48.244Z,51.71
2023-02-03T06:43:14.968Z,50.84
2023-02-03T06:45:42.212Z,52.89
2023-02-03T06:48:08.981Z,53.40
2023-02-03T06:50:36.826Z,52.85
2023-02-03T06:53:03.824Z,52.44
2023-02-03T06:55:31.054Z,53.56
2023-02-03T06:57:59.102Z,53.65
2023-02-03T07:00:27.670Z,54.68
2023-02-03T07:02:54.998Z,55.09
2023-02-03T07:08:40.173Z,55.28
2023-02-03T07:11:07.003Z,56.19
2023-02-03T07:13:34.202Z,55.25
2023-02-03T07:16:01.315Z,54.57
2023-02-03T07:18:46.195Z,54.15
2023-02-03T07:21:13.986Z,53.69
2023-02-03T07:23:41.045Z,52.61
2023-02-03T07:26:08.200Z,51.98
2023-02-03T07:28:34.929Z,52.68
2023-02-03T07:31:03.176Z,53.16
2023-02-03T07:33:30.264Z,52.21
2023-02-03T07:35:57.198Z,51.93
2023-02-03T07:38:24.076Z,51.31
2023-02-03T07:40:51.927Z,50.35
2023-02-03T07:43:20.184Z,50.21
2023-02-03T07:45:47.204Z,49.11
2023-02-03T07:48:15.176Z,48.92
2023-02-03T07:50:42.073Z,49.12
2023-02-03T07:53:08.832Z,48.50
2023-02-03T07:55:37.223Z,47.95
2023-02-03T07:58:04.330Z,47.51
2023-02-03T08:00:31.829Z,47.51
2023-02-03T08:02:59.921Z,46.91
2023-02-03T08:05:26.848Z,47.67
2023-02-03T08:07:55.950Z,46.83
2023-02-03T08:10:23.498Z,46.45
2023-02-03T08:12:50.540Z,46.75
2023-02-03T08:15:18.308Z,46.92
2023-02-03T08:17:46.277Z,46.38
2023-02-03T08:23:23.064Z,46.20
2023-02-03T08:25:50.826Z,45.76
2023-02-03T08:28:18.202Z,47.08
2023-02-03T08:33:41.589Z,46.04
2023-02-03T08:36:08.444Z,45.88
2023-02-03T08:38:36.083Z,46.53
2023-02-03T08:41:03.959Z,46.39
2023-02-03T08:43:33.973Z,48.95
2023-02-03T08:46:01.272Z,48.98
2023-02-03T08:48:31.661Z,48.18
2023-02-03T08:50:59.605Z,47.19
2023-02-03T08:53:29.865Z,46.08
2023-02-03T08:55:57.148Z,47.12
2023-02-03T08:58:24.360Z,48.72
2023-02-03T09:00:51.107Z,52.85
2023-02-03T09:03:18.093Z,51.05
2023-02-03T09:05:47.713Z,49.46
2023-02-03T09:08:14.394Z,50.30
2023-02-03T09:10:43.966Z,49.90
2023-02-03T09:13:10.617Z,49.72
2023-02-03T09:15:37.362Z,48.88
2023-02-03T09:18:04.805Z,48.59
2023-02-03T09:20:32.004Z,47.59
2023-02-03T09:22:59.609Z,46.96
2023-02-03T09:25:27.618Z,46.48
2023-02-03T09:27:54.542Z,46.99
2023-02-03T09:30:21.300Z,46.59
2023-02-03T09:32:48.334Z,47.29
2023-02-03T09:35:15.376Z,46.45
2023-02-03T09:37:43.358Z,48.21
2023-02-03T09:40:10.558Z,51.64
2023-02-03T09:42:37.329Z,51.24
2023-02-03T09:45:04.171Z,49.82
2023-02-03T09:50:14.957Z,50.08
2023-02-03T09:52:42.094Z,50.16
2023-02-03T09:55:08.897Z,50.82
2023-02-03T09:57:35.810Z,49.97
2023-02-03T10:00:03.445Z,53.79
2023-02-03T10:02:30.687Z,51.21
2023-02-03T10:04:57.735Z,49.95
2023-02-03T10:07:24.841Z,51.45
2023-02-03T10:09:54.393Z,51.37
2023-02-03T10:12:26.608Z,52.17
2023-02-03T10:14:53.450Z,55.91
2023-02-03T10:17:20.244Z,54.07
2023-02-03T10:19:47.298Z,53.01
2023-02-03T10:22:14.154Z,51.54
2023-02-03T10:24:41.430Z,52.16
2023-02-03T10:27:08.432Z,52.95
2023-02-03T10:29:35.327Z,51.24
2023-02-03T10:32:02.482Z,51.09
2023-02-03T10:34:30.389Z,50.89
2023-02-03T10:36:57.252Z,50.98
2023-02-03T10:39:24.018Z,52.16
2023-02-03T10:41:51.637Z,52.81
2023-02-03T10:44:18.404Z,50.73
2023-02-03T10:46:47.298Z,49.15
2023-02-03T10:49:14.469Z,47.61
2023-02-03T10:51:44.593Z,47.25
2023-02-03T10:54:13.139Z,47.02
2023-02-03T10:56:39.990Z,47.78
2023-02-03T10:59:06.980Z,47.74
2023-02-03T11:01:33.611Z,47.10
2023-02-03T11:04:00.326Z,47.11
2023-02-03T11:06:27.119Z,46.79
2023-02-03T11:08:54.412Z,46.06
2023-02-03T11:11:23.239Z,48.24
2023-02-03T11:13:51.744Z,49.24
2023-02-03T11:16:19.459Z,48.92
2023-02-03T11:18:46.512Z,48.13
2023-02-03T11:21:14.652Z,47.87
2023-02-03T11:23:42.948Z,50.99
2023-02-03T11:26:09.557Z,51.27
2023-02-03T11:28:37.017Z,48.98
2023-02-03T11:31:06.281Z,47.37
2023-02-03T11:33:35.798Z,48.80
2023-02-03T11:36:03.800Z,47.59
2023-02-03T11:38:31.995Z,46.67
2023-02-03T11:40:59.057Z,44.93
2023-02-03T11:43:30.445Z,45.26
2023-02-03T11:46:02.684Z,44.88
2023-02-03T11:48:30.685Z,46.09
2023-02-03T11:50:59.957Z,46.50
2023-02-03T11:53:44.761Z,45.42
2023-02-03T11:56:21.887Z,46.17
2023-02-03T11:58:54.452Z,44.21
2023-02-03T12:01:22.967Z,44.41
2023-02-03T12:03:49.828Z,45.05
2023-02-03T12:06:19.635Z,44.05
2023-02-03T12:08:46.467Z,45.00
2023-02-03T12:11:13.808Z,44.54
2023-02-03T12:13:40.939Z,44.40
2023-02-03T12:16:08.681Z,44.37
2023-02-03T12:18:35.479Z,45.55
2023-02-03T12:21:02.139Z,45.23
2023-02-03T12:23:29.280Z,43.34
2023-02-03T12:25:58.121Z,43.13
2023-02-03T12:28:33.353Z,45.72
2023-02-03T12:31:02.152Z,44.55
2023-02-03T12:33:33.485Z,43.43
2023-02-03T12:36:00.255Z,41.49
2023-02-03T12:38:27.026Z,41.05
2023-02-03T12:40:53.546Z,42.57
2023-02-03T12:43:20.290Z,42.10
2023-02-03T12:45:47.914Z,41.40
2023-02-03T12:48:15.347Z,42.83
2023-02-03T12:50:42.253Z,46.98
2023-02-03T12:53:09.088Z,46.86
2023-02-03T12:55:35.955Z,45.17
2023-02-03T12:58:06.308Z,46.05
2023-02-03T13:00:33.999Z,43.40
2023-02-03T13:03:00.943Z,44.46
2023-02-03T13:05:27.425Z,45.00
2023-02-03T13:07:57.666Z,43.95
2023-02-03T13:10:24.542Z,43.31
2023-02-03T13:12:53.523Z,43.55
2023-02-03T13:15:21.501Z,43.24
2023-02-03T13:17:48.305Z,41.75
2023-02-03T13:20:16.055Z,41.72
2023-02-03T13:22:43.068Z,42.62
2023-02-03T13:25:09.844Z,42.16
2023-02-03T13:27:37.270Z,40.58
2023-02-03T13:30:04.111Z,39.72
2023-02-03T13:32:31.210Z,39.13
2023-02-03T13:34:58.037Z,38.76
2023-02-03T13:37:24.618Z,39.00
2023-02-03T13:39:51.529Z,39.08
2023-02-03T13:42:18.190Z,39.60
2023-02-03T13:44:45.063Z,40.25
2023-02-03T13:47:12.034Z,40.16
2023-02-03T13:49:38.703Z,39.97
2023-02-03T13:52:07.400Z,39.08
2023-02-03T13:57:28.730Z,39.32
2023-02-03T13:59:57.057Z,39.95
2023-02-03T14:02:24.137Z,38.56
2023-02-03T14:04:52.948Z,40.03
2023-02-03T14:07:20.367Z,41.15
2023-02-03T14:09:47.799Z,39.68
2023-02-03T14:12:14.807Z,39.59
2023-02-03T14:14:45.982Z,37.59
2023-02-03T14:17:12.627Z,36.94
2023-02-03T14:19:40.148Z,36.59
2023-02-03T14:22:07.001Z,36.35
2023-02-03T14:24:33.864Z,37.61
2023-02-03T14:27:00.601Z,39.35
2023-02-03T14:29:27.673Z,39.62
2023-02-03T14:31:54.647Z,39.33
2023-02-03T14:34:22.216Z,39.32
2023-02-03T14:36:48.955Z,39.52
2023-02-03T14:39:15.946Z,38.24
2023-02-03T14:41:42.861Z,38.56
2023-02-03T14:44:09.722Z,38.55
2023-02-03T14:46:37.353Z,37.71
2023-02-03T14:49:04.070Z,36.89
2023-02-03T14:51:33.073Z,37.42
2023-02-03T14:54:03.968Z,38.79
2023-02-03T14:59:45.937Z,37.46
2023-02-03T15:02:13.325Z,39.30
2023-02-03T15:04:40.056Z,38.29
2023-02-03T15:07:06.851Z,38.90
2023-02-03T15:09:33.607Z,39.42
2023-02-03T15:12:00.282Z,38.39
2023-02-03T15:14:26.932Z,37.52
2023-02-03T15:16:53.773Z,38.21
2023-02-03T15:19:20.466Z,39.70
2023-02-03T15:21:48.079Z,39.34
2023-02-03T15:24:15.008Z,38.89
2023-02-03T15:26:41.736Z,39.77
2023-02-03T15:29:08.400Z,37.48
2023-02-03T15:31:35.165Z,37.32
2023-02-03T15:34:02.681Z,37.60
2023-02-03T15:36:29.433Z,37.07
2023-02-03T15:38:58.092Z,37.76
2023-02-03T15:41:25.010Z,37.80
2023-02-03T15:43:51.775Z,39.51
2023-02-03T15:49:33.924Z,39.79
2023-02-03T15:52:00.991Z,39.00
2023-02-03T15:54:28.548Z,38.50
2023-02-03T15:56:55.211Z,38.15
2023-02-03T15:59:21.815Z,38.78
2023-02-03T16:01:49.533Z,38.79
2023-02-03T16:04:16.525Z,38.29
2023-02-03T16:06:43.982Z,42.23
2023-02-03T16:09:11.252Z,42.74
2023-02-03T16:11:40.926Z,41.52
2023-02-03T16:14:07.701Z,42.02
2023-02-03T16:16:34.359Z,42.03
2023-02-03T16:19:03.918Z,42.33
2023-02-03T16:21:30.524Z,41.68
2023-02-03T16:23:57.111Z,43.58
2023-02-03T16:26:26.172Z,42.17
2023-02-03T16:28:53.711Z,43.58
2023-02-03T16:31:22.081Z,44.23
2023-02-03T16:33:48.928Z,47.71
2023-02-03T16:36:17.175Z,48.15
2023-02-03T16:38:43.936Z,48.60
2023-02-03T16:41:11.670Z,49.23
2023-02-03T16:43:51.414Z,49.76
2023-02-03T16:46:30.864Z,48.68
2023-02-03T16:49:02.008Z,48.42
2023-02-03T16:51:28.791Z,47.92
2023-02-03T16:53:58.222Z,47.37
2023-02-03T16:56:25.768Z,46.03
2023-02-03T16:58:52.642Z,45.59
2023-02-03T17:01:20.147Z,43.39
2023-02-03T17:03:47.291Z,44.93
2023-02-03T17:06:14.092Z,43.56
2023-02-03T17:08:41.019Z,44.61
2023-02-03T17:11:08.079Z,42.93
2023-02-03T17:13:35.172Z,42.74
2023-02-03T17:16:02.516Z,42.53
2023-02-03T17:18:29.151Z,41.97
2023-02-03T17:21:01.369Z,42.53
2023-02-03T17:23:29.924Z,41.99
2023-02-03T17:25:57.287Z,42.88
2023-02-03T17:28:24.438Z,43.08
2023-02-03T17:30:51.392Z,42.62
2023-02-03T17:33:17.986Z,42.91
2023-02-03T17:35:44.701Z,44.79
2023-02-03T17:38:11.827Z,43.80
2023-02-03T17:54:28.591Z,43.61
2023-02-03T17:56:55.856Z,45.56
2023-02-03T17:59:23.236Z,47.02
2023-02-03T18:01:50.054Z,46.59
2023-02-03T18:12:57.640Z,47.25
2023-02-03T18:32:37.607Z,50.01
2023-02-03T18:35:04.969Z,48.50
2023-02-03T18:37:32.462Z,50.51
2023-02-03T18:39:59.320Z,48.89
2023-02-03T18:42:27.248Z,48.82
2023-02-03T18:44:53.810Z,48.42
2023-02-03T18:47:20.694Z,47.54
2023-02-03T18:49:47.564Z,47.99
2023-02-03T18:52:15.095Z,46.30
2023-02-03T18:54:43.467Z,45.85
2023-02-03T18:57:10.823Z,46.09
2023-02-03T18:59:37.808Z,47.81
2023-02-03T19:02:04.581Z,51.06
2023-02-03T19:04:38.597Z,52.89
2023-02-03T19:07:16.227Z,54.41
2023-02-03T19:09:42.828Z,55.63
2023-02-03T19:12:09.461Z,55.47
2023-02-03T19:32:48.267Z,54.51
2023-02-03T19:35:18.876Z,54.97
2023-02-03T19:37:45.400Z,54.71
2023-02-03T19:40:11.899Z,54.25
2023-02-03T19:42:44.518Z,52.61
2023-02-03T19:45:13.990Z,53.53
2023-02-03T19:47:43.789Z,54.22
2023-02-03T19:50:20.647Z,54.26
2023-02-03T19:52:47.227Z,53.98
2023-02-03T19:55:17.990Z,53.18
2023-02-03T19:57:44.899Z,52.27
2023-02-03T20:00:11.484Z,51.68
2023-02-03T20:02:39.202Z,50.97
2023-02-03T20:05:06.013Z,48.54
2023-02-03T20:07:32.943Z,48.12
2023-02-03T20:09:59.417Z,49.86
2023-02-03T20:12:26.839Z,49.86
2023-02-03T20:14:53.739Z,49.19
2023-02-03T20:17:24.257Z,49.59
2023-02-03T20:19:52.387Z,47.53
2023-02-03T20:22:19.731Z,45.69
2023-02-03T20:27:55.532Z,44.53
2023-02-03T20:30:22.366Z,44.46
2023-02-03T20:32:49.492Z,44.79
2023-02-03T20:35:16.576Z,44.14
2023-02-03T20:43:20.667Z,43.19
2023-02-03T21:10:16.989Z,43.72
2023-02-03T21:12:43.592Z,44.10
2023-02-03T21:15:10.093Z,45.94
2023-02-03T21:17:36.907Z,45.85
2023-02-03T21:20:03.842Z,45.01
2023-02-03T21:22:32.191Z,44.00
2023-02-03T21:24:58.924Z,43.74
2023-02-03T21:27:25.898Z,44.05
2023-02-03T21:29:52.831Z,44.23
2023-02-03T21:32:19.689Z,45.49
2023-02-03T21:34:46.523Z,47.34
2023-02-03T21:43:04.666Z,44.59
2023-02-03T21:45:31.315Z,43.88
2023-02-03T21:47:57.850Z,44.12
2023-02-03T21:50:24.823Z,44.70
2023-02-03T21:52:51.556Z,44.70
2023-02-03T21:55:18.037Z,45.27
2023-02-03T21:57:45.338Z,47.12
2023-02-03T22:03:16.784Z,51.17
2023-02-03T22:06:28.515Z,53.98
2023-02-03T22:08:59.150Z,53.59
2023-02-03T22:11:25.617Z,51.36
2023-02-03T22:13:53.109Z,53.99
2023-02-03T22:16:20.538Z,53.72
2023-02-03T22:18:47.995Z,51.08
2023-02-03T22:21:14.583Z,50.02
2023-02-03T22:23:48.621Z,53.56
2023-02-03T22:26:15.214Z,54.66
2023-02-03T22:28:42.831Z,54.82
2023-02-03T22:31:13.134Z,55.62
2023-02-03T22:33:40.206Z,54.77
2023-02-03T22:36:06.827Z,53.87
2023-02-03T22:38:34.406Z,54.36
2023-02-03T22:41:01.012Z,51.89
2023-02-03T22:43:30.048Z,51.71
2023-02-03T22:45:57.687Z,50.48
2023-02-03T22:48:24.607Z,49.56
2023-02-03T22:50:51.216Z,48.25
2023-02-03T22:53:18.162Z,47.70
2023-02-03T22:55:45.437Z,48.08
2023-02-03T22:58:12.262Z,49.09
2023-02-03T23:00:39.085Z,49.78
2023-02-03T23:03:06.737Z,49.15
2023-02-03T23:05:33.329Z,48.34
2023-02-03T23:07:59.929Z,48.91
2023-02-03T23:10:26.466Z,52.30
2023-02-03T23:12:53.058Z,54.35
2023-02-03T23:15:20.056Z,55.83
2023-02-03T23:17:47.723Z,56.04
2023-02-03T23:20:14.636Z,56.20
2023-02-03T23:22:41.222Z,56.86
2023-02-03T23:25:08.097Z,54.15
2023-02-03T23:27:34.890Z,54.22
2023-02-03T23:30:05.541Z,52.81
2023-02-03T23:32:33.985Z,50.80
2023-02-03T23:35:00.887Z,51.22
2023-02-03T23:37:27.557Z,49.57
2023-02-03T23:39:55.597Z,50.45
2023-02-03T23:42:22.246Z,52.74
2023-02-03T23:44:48.903Z,57.06
2023-02-03T23:47:15.588Z,58.13
2023-02-03T23:49:42.722Z,55.84
2023-02-03T23:52:09.237Z,57.09
2023-02-03T23:57:45.509Z,59.58
